| time (UTC) | temp F | wind direction | speed MPH | gust MPH | rain 1hr in | rain 24hr in | rain mn in | humidity % | barometer mb |
| 20260902010002 | 74 | 306 | 0.0 | 0.0 | 0.00 | 0.01 | 0.01 | 89 | 1008.5 |
| 20260902005709 | 75 | 306 | 0.0 | 0.0 | 0.00 | 0.01 | 0.01 | 88 | 1008.4 |
| 20260902004725 | 76 | 306 | 0.0 | 0.0 | 0.00 | 0.01 | 0.01 | 85 | 1008.4 |
| 20260902004604 | 76 | 306 | 0.0 | 1.0 | 0.00 | 0.01 | 0.01 | 85 | 1008.4 |
| 20260902003005 | 77 | 306 | 0.0 | 1.0 | 0.00 | 0.01 | 0.01 | 82 | 1008.4 |
| 20260902002531 | 78 | 306 | 0.0 | 0.0 | 0.00 | 0.01 | 0.01 | 81 | 1008.4 |
| 20260902001602 | 77 | 316 | 0.0 | 1.0 | 0.00 | 0.01 | 0.01 | 80 | 1008.7 |
| 20260902001531 | 78 | 316 | 0.0 | 0.0 | 0.00 | 0.01 | 0.01 | 80 | 1008.6 |
| 20260902000524 | 78 | 316 | 0.0 | 1.0 | 0.00 | 0.01 | 0.01 | 79 | 1008.7 |
| 20260902000009 | 78 | 316 | 0.0 | 1.0 | 0.00 | 0.01 | 0.01 | 80 | 1008.8 |
| 20260901235457 | 78 | 316 | 0.0 | 0.0 | 0.00 | 0.01 | 0.01 | 81 | 1008.8 |
| 20260901234613 | 78 | 316 | 1.0 | 1.0 | 0.00 | 0.01 | 0.01 | 81 | 1008.9 |
| 20260901234444 | 79 | 316 | 0.0 | 0.0 | 0.00 | 0.01 | 0.01 | 82 | 1008.9 |
| 20260901233455 | 80 | 316 | 0.0 | 0.0 | 0.00 | 0.01 | 0.01 | 80 | 1008.8 |
| 20260901233002 | 79 | 316 | 0.0 | 0.0 | 0.00 | 0.01 | 0.01 | 78 | 1008.8 |
| 20260901232427 | 80 | 316 | 0.0 | 0.0 | 0.00 | 0.01 | 0.01 | 75 | 1008.7 |
| 20260901231606 | 79 | 316 | 0.0 | 1.0 | 0.00 | 0.01 | 0.01 | 79 | 1008.8 |
| 20260901231423 | 80 | 316 | 0.0 | 0.0 | 0.00 | 0.01 | 0.01 | 77 | 1008.7 |
| 20260901230425 | 80 | 316 | 0.0 | 0.0 | 0.00 | 0.01 | 0.01 | 78 | 1008.7 |
| 20260901230003 | 79 | 316 | 0.0 | 2.0 | 0.00 | 0.01 | 0.01 | 78 | 1008.9 |
| 20260901225435 | 80 | 316 | 1.0 | 1.0 | 0.00 | 0.01 | 0.01 | 78 | 1008.8 |
| 20260901224602 | 79 | 316 | 2.0 | 2.0 | 0.00 | 0.01 | 0.01 | 77 | 1008.8 |
| 20260901224457 | 80 | 316 | 0.0 | 2.0 | 0.00 | 0.01 | 0.01 | 77 | 1008.7 |
| 20260901223439 | 80 | 316 | 1.0 | 2.0 | 0.00 | 0.01 | 0.01 | 76 | 1008.7 |
| 20260901223002 | 80 | 316 | 2.0 | 3.0 | 0.00 | 0.01 | 0.01 | 75 | 1008.8 |
| 20260901222420 | 80 | 315 | 1.0 | 3.0 | 0.00 | 0.01 | 0.01 | 77 | 1008.8 |
| 20260901221620 | 80 | 312 | 2.0 | 4.0 | 0.00 | 0.01 | 0.01 | 76 | 1008.8 |
| 20260901221355 | 80 | 325 | 2.0 | 3.0 | 0.00 | 0.01 | 0.01 | 76 | 1008.8 |
| 20260901220319 | 81 | 320 | 1.0 | 2.0 | 0.00 | 0.01 | 0.01 | 75 | 1008.8 |
| 20260901220006 | 80 | 320 | 2.0 | 3.0 | 0.00 | 0.01 | 0.01 | 73 | 1008.8 |
| 20260901215316 | 81 | 320 | 0.0 | 2.0 | 0.00 | 0.01 | 0.01 | 73 | 1008.7 |
| 20260901214602 | 81 | 320 | 1.0 | 3.0 | 0.00 | 0.01 | 0.01 | 71 | 1008.8 |
| 20260901214332 | 82 | 320 | 1.0 | 3.0 | 0.00 | 0.01 | 0.01 | 71 | 1008.6 |
| 20260901213005 | 82 | 292 | 2.0 | 4.0 | 0.00 | 0.01 | 0.01 | 67 | 1008.8 |
| 20260901212132 | 82 | 326 | 3.0 | 4.0 | 0.00 | 0.01 | 0.01 | 67 | 1008.7 |
| 20260901211603 | 82 | 336 | 3.0 | 5.0 | 0.00 | 0.01 | 0.01 | 65 | 1008.7 |
| 20260901211141 | 83 | 262 | 1.0 | 3.0 | 0.00 | 0.01 | 0.01 | 67 | 1008.6 |
| 20260901210109 | 82 | 265 | 1.0 | 2.0 | 0.00 | 0.01 | 0.01 | 68 | 1008.8 |
| 20260901210009 | 81 | 278 | 1.0 | 3.0 | 0.00 | 0.01 | 0.01 | 70 | 1008.8 |
| 20260901205035 | 82 | 273 | 0.0 | 2.0 | 0.00 | 0.01 | 0.01 | 69 | 1008.8 |
| 20260901204602 | 81 | 290 | 1.0 | 3.0 | 0.00 | 0.01 | 0.01 | 72 | 1008.9 |
| 20260901204047 | 82 | 284 | 0.0 | 2.0 | 0.00 | 0.01 | 0.01 | 71 | 1008.8 |
| 20260901203010 | 82 | 319 | 0.0 | 2.0 | 0.00 | 0.01 | 0.01 | 66 | 1008.8 |
| 20260901203006 | 81 | 319 | 1.0 | 3.0 | 0.00 | 0.01 | 0.01 | 66 | 1008.8 |
| 20260901201602 | 81 | 282 | 1.0 | 3.0 | 0.00 | 0.01 | 0.01 | 66 | 1009.3 |
| 20260901200903 | 82 | 280 | 1.0 | 2.0 | 0.00 | 0.01 | 0.01 | 68 | 1009.4 |
| 20260901200002 | 82 | 316 | 1.0 | 3.0 | 0.00 | 0.01 | 0.01 | 65 | 1009.2 |
| 20260901195841 | 83 | 316 | 0.0 | 2.0 | 0.00 | 0.01 | 0.01 | 65 | 1009.1 |
| 20260901194836 | 83 | 298 | 0.0 | 0.0 | 0.00 | 0.01 | 0.01 | 63 | 1008.9 |
| 20260901194602 | 82 | 298 | 0.0 | 1.0 | 0.00 | 0.01 | 0.01 | 64 | 1009.1 |
| 20260901193800 | 83 | 298 | 0.0 | 0.0 | 0.00 | 0.01 | 0.01 | 63 | 1009.2 |
| 20260901193002 | 82 | 298 | 0.0 | 1.0 | 0.00 | 0.01 | 0.01 | 60 | 1009.6 |
| 20260901192728 | 83 | 281 | 0.0 | 0.0 | 0.00 | 0.01 | 0.01 | 61 | 1009.6 |
| 20260901191714 | 83 | 233 | 0.0 | 0.0 | 0.00 | 0.01 | 0.01 | 62 | 1009.3 |
| 20260901191615 | 82 | 233 | 0.0 | 1.0 | 0.00 | 0.01 | 0.01 | 60 | 1009.5 |
| 20260901190641 | 82 | 233 | 0.0 | 0.0 | 0.00 | 0.01 | 0.01 | 61 | 1009.7 |
| 20260901190006 | 82 | 240 | 0.0 | 2.0 | 0.00 | 0.01 | 0.01 | 61 | 1009.7 |
| 20260901184605 | 82 | 234 | 1.0 | 3.0 | 0.00 | 0.01 | 0.01 | 62 | 1009.6 |
| 20260901184533 | 82 | 214 | 1.0 | 2.0 | 0.00 | 0.01 | 0.01 | 62 | 1009.5 |
| 20260901183104 | 83 | 274 | 1.0 | 3.0 | 0.00 | 0.01 | 0.01 | 55 | 1009.4 |
| 20260901182443 | 84 | 52 | 0.0 | 1.0 | 0.00 | 0.01 | 0.01 | 61 | 1009.2 |
| 20260901181507 | 83 | 273 | 3.0 | 4.0 | 0.00 | 0.01 | 0.01 | 56 | 1009.5 |
| 20260901181412 | 84 | 265 | 0.0 | 3.0 | 0.00 | 0.01 | 0.01 | 56 | 1009.4 |
| 20260901180354 | 83 | 322 | 0.0 | 1.0 | 0.00 | 0.01 | 0.01 | 62 | 1009.8 |
| 20260901180103 | 82 | 322 | 1.0 | 3.0 | 0.00 | 0.01 | 0.01 | 62 | 1009.9 |
| 20260901175359 | 82 | 310 | 0.0 | 3.0 | 0.00 | 0.01 | 0.01 | 63 | 1010.0 |
| 20260901174503 | 81 | 300 | 1.0 | 4.0 | 0.00 | 0.01 | 0.01 | 62 | 1010.1 |
| 20260901174403 | 81 | 290 | 2.0 | 3.0 | 0.00 | 0.01 | 0.01 | 63 | 1010.1 |
| 20260901173339 | 81 | 332 | 2.0 | 6.0 | 0.00 | 0.01 | 0.01 | 65 | 1010.1 |
| 20260901173103 | 81 | 342 | 1.0 | 5.0 | 0.00 | 0.01 | 0.01 | 65 | 1010.2 |
| 20260901172333 | 81 | 335 | 3.0 | 6.0 | 0.00 | 0.01 | 0.01 | 65 | 1010.2 |
| 20260901171502 | 81 | 338 | 4.0 | 7.0 | 0.00 | 0.01 | 0.01 | 64 | 1010.3 |
| 20260901171338 | 81 | 342 | 1.0 | 5.0 | 0.00 | 0.01 | 0.01 | 64 | 1010.2 |
| 20260901170311 | 81 | 341 | 2.0 | 5.0 | 0.00 | 0.01 | 0.01 | 67 | 1010.3 |
| 20260901170003 | 80 | 330 | 2.0 | 6.0 | 0.00 | 0.01 | 0.01 | 67 | 1010.3 |
| 20260901165325 | 81 | 333 | 2.0 | 5.0 | 0.00 | 0.01 | 0.01 | 60 | 1010.3 |
| 20260901164603 | 80 | 279 | 1.0 | 6.0 | 0.00 | 0.01 | 0.01 | 65 | 1010.4 |
| 20260901163249 | 80 | 310 | 1.0 | 5.0 | 0.00 | 0.01 | 0.01 | 66 | 1010.4 |
| 20260901161502 | 79 | 248 | 1.0 | 5.0 | 0.00 | 0.01 | 0.01 | 68 | 1010.4 |
| 20260901161057 | 79 | 263 | 2.0 | 4.0 | 0.00 | 0.01 | 0.01 | 71 | 1010.3 |
| 20260901160106 | 78 | 214 | 3.0 | 5.0 | 0.00 | 0.01 | 0.01 | 71 | 1010.3 |
| 20260901160039 | 78 | 205 | 1.0 | 4.0 | 0.00 | 0.01 | 0.01 | 71 | 1010.3 |
| 20260901154510 | 76 | 291 | 2.0 | 4.0 | 0.00 | 0.01 | 0.01 | 73 | 1010.4 |
| 20260901153841 | 77 | 283 | 1.0 | 4.0 | 0.00 | 0.01 | 0.01 | 75 | 1010.3 |
| 20260901153105 | 75 | 342 | 2.0 | 5.0 | 0.00 | 0.01 | 0.01 | 77 | 1010.2 |
| 20260901152849 | 76 | 322 | 1.0 | 4.0 | 0.00 | 0.01 | 0.01 | 76 | 1010.1 |
| 20260901151844 | 75 | 276 | 1.0 | 4.0 | 0.00 | 0.01 | 0.01 | 82 | 1010.3 |
| 20260901151603 | 74 | 306 | 1.0 | 5.0 | 0.01 | 0.01 | 0.01 | 80 | 1010.3 |
| 20260901150003 | 73 | 315 | 1.0 | 3.0 | 0.01 | 0.01 | 0.01 | 84 | 1010.5 |
| 20260901145623 | 73 | 284 | 1.0 | 2.0 | 0.00 | 0.01 | 0.01 | 84 | 1010.4 |
| 20260901144604 | 72 | 309 | 0.0 | 2.0 | 0.00 | 0.01 | 0.01 | 87 | 1010.6 |
| 20260901144602 | 71 | 309 | 0.0 | 3.0 | 0.01 | 0.01 | 0.01 | 87 | 1010.7 |
| 20260901143533 | 71 | 219 | 0.0 | 2.0 | 0.00 | 0.01 | 0.01 | 88 | 1010.6 |
| 20260901143002 | 70 | 285 | 1.0 | 3.0 | 0.01 | 0.01 | 0.01 | 87 | 1010.6 |
| 20260901142523 | 71 | 238 | 0.0 | 2.0 | 0.00 | 0.01 | 0.01 | 87 | 1010.6 |
| 20260901141603 | 70 | 207 | 1.0 | 3.0 | 0.00 | 0.00 | 0.00 | 88 | 1010.6 |
| 20260901141525 | 70 | 212 | 0.0 | 3.0 | 0.00 | 0.00 | 0.00 | 88 | 1010.5 |
| 20260901140002 | 68 | 218 | 2.0 | 3.0 | 0.00 | 0.00 | 0.00 | 90 | 1010.8 |
| 20260901134615 | 69 | 197 | 0.0 | 1.0 | 0.00 | 0.00 | 0.00 | 91 | 1010.9 |
| 20260901134215 | 69 | 197 | 0.0 | 0.0 | 0.00 | 0.00 | 0.00 | 92 | 1010.9 |
| 20260901133002 | 66 | 197 | 0.0 | 2.0 | 0.00 | 0.00 | 0.00 | 94 | 1011.0 |
| 20260901132100 | 66 | 339 | 0.0 | 0.0 | 0.00 | 0.00 | 0.00 | 94 | 1010.9 |
| 20260901131606 | 65 | 339 | 0.0 | 0.0 | 0.00 | 0.00 | 0.00 | 96 | 1010.9 |
| 20260901131036 | 65 | 339 | 0.0 | 0.0 | 0.00 | 0.00 | 0.00 | 97 | 1010.8 |
| 20260901130049 | 64 | 339 | 0.0 | 0.0 | 0.00 | 0.00 | 0.00 | 97 | 1010.6 |
| 20260901130002 | 63 | 339 | 0.0 | 0.0 | 0.00 | 0.00 | 0.00 | 97 | 1010.7 |
| 20260901125056 | 63 | 339 | 0.0 | 0.0 | 0.00 | 0.00 | 0.00 | 97 | 1010.6 |
| 20260901124603 | 62 | 339 | 0.0 | 0.0 | 0.00 | 0.00 | 0.00 | 97 | 1010.6 |
| 20260901124040 | 62 | 339 | 0.0 | 0.0 | 0.00 | 0.00 | 0.00 | 98 | 1010.6 |
| 20260901123002 | 61 | 339 | 0.0 | 0.0 | 0.00 | 0.00 | 0.00 | 97 | 1010.5 |
| 20260901121916 | 61 | 339 | 0.0 | 0.0 | 0.00 | 0.00 | 0.00 | 98 | 1010.3 |
| 20260901121602 | 61 | 339 | 1.0 | 4.0 | 0.00 | 0.00 | 0.00 | 98 | 1010.3 |
| 20260901120840 | 61 | 339 | 3.0 | 5.0 | 0.00 | 0.00 | 0.00 | 97 | 1010.2 |
| 20260901120001 | 61 | 328 | 2.0 | 4.0 | 0.00 | 0.00 | 0.00 | 98 | 1010.2 |
| 20260901115818 | 61 | 167 | 0.0 | 1.0 | 0.00 | 0.00 | 0.00 | 98 | 1010.1 |
| 20260901114816 | 61 | 167 | 0.0 | 0.0 | 0.00 | 0.00 | 0.00 | 98 | 1010.0 |
| 20260901114603 | 61 | 167 | 0.0 | 0.0 | 0.00 | 0.00 | 0.00 | 98 | 1010.0 |
| 20260901113751 | 61 | 167 | 0.0 | 0.0 | 0.00 | 0.00 | 0.00 | 98 | 1009.9 |
| 20260901113003 | 61 | 167 | 0.0 | 2.0 | 0.00 | 0.00 | 0.00 | 98 | 1009.8 |
| 20260901112743 | 61 | 167 | 0.0 | 0.0 | 0.00 | 0.00 | 0.00 | 98 | 1009.7 |
| 20260901111756 | 61 | 167 | 0.0 | 1.0 | 0.00 | 0.00 | 0.00 | 98 | 1009.6 |
| 20260901111602 | 60 | 167 | 0.0 | 0.0 | 0.00 | 0.00 | 0.00 | 98 | 1009.6 |
| 20260901110756 | 61 | 167 | 0.0 | 0.0 | 0.00 | 0.00 | 0.00 | 98 | 1009.4 |
| 20260901110003 | 60 | 167 | 0.0 | 1.0 | 0.00 | 0.00 | 0.00 | 98 | 1009.3 |
| 20260901105747 | 61 | 167 | 0.0 | 0.0 | 0.00 | 0.00 | 0.00 | 98 | 1009.3 |
| 20260901104607 | 61 | 167 | 0.0 | 1.0 | 0.00 | 0.00 | 0.00 | 98 | 1009.3 |
| 20260901103549 | 61 | 167 | 0.0 | 2.0 | 0.00 | 0.00 | 0.00 | 98 | 1009.3 |
| 20260901103006 | 60 | 167 | 0.0 | 2.0 | 0.00 | 0.00 | 0.00 | 98 | 1009.4 |
| 20260901101503 | 60 | 108 | 2.0 | 3.0 | 0.00 | 0.00 | 0.00 | 97 | 1009.3 |
| 20260901100415 | 61 | 108 | 0.0 | 0.0 | 0.00 | 0.00 | 0.00 | 98 | 1009.2 |
| 20260901100107 | 60 | 108 | 0.0 | 0.0 | 0.00 | 0.00 | 0.00 | 98 | 1009.2 |
| 20260901095339 | 61 | 108 | 0.0 | 0.0 | 0.00 | 0.00 | 0.00 | 98 | 1009.1 |
| 20260901094508 | 61 | 108 | 0.0 | 0.0 | 0.00 | 0.00 | 0.00 | 98 | 1009.1 |
| 20260901094325 | 61 | 108 | 0.0 | 0.0 | 0.00 | 0.00 | 0.00 | 98 | 1009.1 |
| 20260901093249 | 61 | 108 | 0.0 | 0.0 | 0.00 | 0.00 | 0.00 | 97 | 1009.1 |
| 20260901093107 | 60 | 108 | 0.0 | 1.0 | 0.00 | 0.00 | 0.00 | 97 | 1009.1 |
| 20260901092247 | 62 | 108 | 0.0 | 0.0 | 0.00 | 0.00 | 0.00 | 98 | 1009.1 |
| 20260901091614 | 61 | 108 | 0.0 | 1.0 | 0.00 | 0.00 | 0.00 | 98 | 1009.2 |
| 20260901090110 | 61 | 108 | 0.0 | 0.0 | 0.00 | 0.00 | 0.00 | 97 | 1009.1 |
| 20260901090008 | 61 | 108 | 0.0 | 0.0 | 0.00 | 0.00 | 0.00 | 97 | 1009.1 |
| 20260901084602 | 61 | 108 | 0.0 | 0.0 | 0.00 | 0.00 | 0.00 | 97 | 1009.1 |
| 20260901083904 | 62 | 108 | 0.0 | 0.0 | 0.00 | 0.00 | 0.00 | 97 | 1009.1 |
| 20260901083010 | 62 | 108 | 0.0 | 0.0 | 0.00 | 0.00 | 0.00 | 97 | 1009.1 |
| 20260901082920 | 62 | 108 | 0.0 | 0.0 | 0.00 | 0.00 | 0.00 | 97 | 1009.1 |
| 20260901081603 | 62 | 108 | 0.0 | 0.0 | 0.00 | 0.00 | 0.00 | 97 | 1009.1 |
| 20260901080752 | 62 | 108 | 0.0 | 0.0 | 0.00 | 0.00 | 0.00 | 97 | 1009.0 |
| 20260901080003 | 62 | 108 | 0.0 | 0.0 | 0.00 | 0.00 | 0.00 | 96 | 1009.0 |
| 20260901075752 | 62 | 108 | 0.0 | 0.0 | 0.00 | 0.00 | 0.00 | 96 | 1009.0 |
| 20260901074800 | 63 | 108 | 0.0 | 0.0 | 0.00 | 0.00 | 0.00 | 97 | 1008.9 |
| 20260901074603 | 62 | 108 | 0.0 | 2.0 | 0.00 | 0.00 | 0.00 | 97 | 1008.9 |
| 20260901073810 | 63 | 108 | 0.0 | 0.0 | 0.00 | 0.00 | 0.00 | 96 | 1008.9 |
| 20260901073002 | 63 | 108 | 0.0 | 1.0 | 0.00 | 0.00 | 0.00 | 97 | 1008.9 |
| 20260901072828 | 63 | 108 | 0.0 | 0.0 | 0.00 | 0.00 | 0.00 | 97 | 1009.0 |
| 20260901071836 | 63 | 108 | 0.0 | 1.0 | 0.00 | 0.00 | 0.00 | 97 | 1009.0 |
| 20260901071606 | 62 | 108 | 1.0 | 2.0 | 0.00 | 0.00 | 0.00 | 96 | 1009.2 |
| 20260901070818 | 63 | 183 | 0.0 | 0.0 | 0.00 | 0.00 | 0.00 | 97 | 1009.2 |
| 20260901070002 | 62 | 213 | 0.0 | 1.0 | 0.00 | 0.00 | 0.00 | 96 | 1009.5 |
| 20260901065803 | 63 | 213 | 0.0 | 0.0 | 0.00 | 0.00 | 0.00 | 95 | 1009.5 |
| 20260901064738 | 63 | 213 | 0.0 | 0.0 | 0.00 | 0.00 | 0.00 | 96 | 1009.4 |
| 20260901064602 | 63 | 213 | 0.0 | 0.0 | 0.00 | 0.00 | 0.00 | 96 | 1009.4 |
| 20260901063758 | 64 | 213 | 0.0 | 0.0 | 0.00 | 0.00 | 0.00 | 96 | 1009.4 |
| 20260901063006 | 63 | 213 | 0.0 | 0.0 | 0.00 | 0.00 | 0.00 | 97 | 1009.6 |
| 20260901062729 | 64 | 213 | 0.0 | 0.0 | 0.00 | 0.00 | 0.00 | 96 | 1009.5 |
| 20260901061603 | 64 | 213 | 0.0 | 0.0 | 0.00 | 0.00 | 0.00 | 96 | 1009.7 |
| 20260901060002 | 64 | 213 | 0.0 | 1.0 | 0.00 | 0.00 | 0.00 | 96 | 1009.5 |
| 20260901054605 | 63 | 213 | 0.0 | 1.0 | 0.00 | 0.00 | 0.00 | 95 | 1009.4 |
| 20260901054407 | 64 | 213 | 0.0 | 0.0 | 0.00 | 0.00 | 0.00 | 95 | 1009.4 |
| 20260901053407 | 65 | 200 | 0.0 | 0.0 | 0.00 | 0.00 | 0.00 | 95 | 1009.2 |
| 20260901053004 | 64 | 200 | 0.0 | 0.0 | 0.00 | 0.00 | 0.00 | 94 | 1009.3 |
| 20260901052417 | 65 | 200 | 0.0 | 0.0 | 0.00 | 0.00 | 0.00 | 95 | 1009.1 |
| 20260901051610 | 65 | 200 | 0.0 | 1.0 | 0.00 | 0.00 | 0.00 | 95 | 1009.0 |
| 20260901051427 | 65 | 200 | 0.0 | 0.0 | 0.00 | 0.00 | 0.00 | 95 | 1008.9 |
| 20260901050002 | 64 | 202 | 1.0 | 2.0 | 0.00 | 0.00 | 0.00 | 95 | 1008.8 |
| 20260901044505 | 65 | 205 | 2.0 | 3.0 | 0.00 | 0.00 | 0.00 | 94 | 1008.6 |
| 20260901044341 | 65 | 205 | 1.0 | 2.0 | 0.00 | 0.00 | 0.00 | 93 | 1008.5 |
| 20260901043320 | 66 | 56 | 0.0 | 2.0 | 0.00 | 0.00 | 0.00 | 94 | 1008.4 |
| 20260901043104 | 65 | 56 | 1.0 | 3.0 | 0.00 | 0.00 | 0.00 | 94 | 1008.4 |
| 20260901042306 | 66 | 56 | 0.0 | 0.0 | 0.00 | 0.00 | 0.00 | 93 | 1008.3 |
| 20260901041502 | 66 | 56 | 0.0 | 0.0 | 0.00 | 0.00 | 0.00 | 93 | 1008.4 |
| 20260901040110 | 67 | 56 | 0.0 | 2.0 | 0.00 | 0.00 | 0.00 | 93 | 1008.5 |
| 20260901034505 | 67 | 233 | 0.0 | 2.0 | 0.00 | 0.00 | 0.00 | 92 | 1008.5 |
| 20260901033842 | 68 | 233 | 0.0 | 0.0 | 0.00 | 0.00 | 0.00 | 91 | 1008.6 |
| 20260901033107 | 68 | 233 | 0.0 | 1.0 | 0.00 | 0.00 | 0.00 | 92 | 1008.6 |
| 20260901032805 | 68 | 233 | 0.0 | 0.0 | 0.00 | 0.00 | 0.00 | 91 | 1008.6 |
| 20260901031800 | 69 | 233 | 0.0 | 1.0 | 0.00 | 0.00 | 0.00 | 90 | 1008.5 |
| 20260901031503 | 69 | 233 | 0.0 | 1.0 | 0.00 | 0.00 | 0.00 | 88 | 1008.6 |
| 20260901030821 | 70 | 233 | 0.0 | 0.0 | 0.00 | 0.00 | 0.00 | 88 | 1008.4 |
| 20260901025833 | 71 | 233 | 0.0 | 0.0 | 0.00 | 0.00 | 0.00 | 88 | 1008.3 |
| 20260901024821 | 71 | 233 | 0.0 | 0.0 | 0.00 | 0.00 | 0.00 | 87 | 1008.3 |
| 20260901024503 | 71 | 233 | 0.0 | 1.0 | 0.00 | 0.00 | 0.00 | 87 | 1008.3 |
| 20260901023829 | 71 | 233 | 0.0 | 0.0 | 0.00 | 0.00 | 0.00 | 87 | 1008.2 |
| 20260901023103 | 71 | 233 | 0.0 | 1.0 | 0.00 | 0.00 | 0.00 | 86 | 1008.4 |
| 20260901022804 | 72 | 233 | 0.0 | 0.0 | 0.00 | 0.00 | 0.00 | 86 | 1008.3 |
| 20260901021818 | 72 | 233 | 0.0 | 0.0 | 0.00 | 0.00 | 0.00 | 85 | 1008.1 |
| 20260901021505 | 72 | 233 | 0.0 | 2.0 | 0.00 | 0.00 | 0.00 | 85 | 1008.2 |
| 20260901020838 | 73 | 233 | 1.0 | 1.0 | 0.00 | 0.00 | 0.00 | 85 | 1008.0 |
| 20260901020105 | 72 | 243 | 1.0 | 2.0 | 0.00 | 0.00 | 0.00 | 84 | 1008.2 |
| 20260901015830 | 73 | 243 | 0.0 | 1.0 | 0.00 | 0.00 | 0.00 | 84 | 1008.1 |
| 20260901014809 | 73 | 246 | 0.0 | 1.0 | 0.00 | 0.00 | 0.00 | 82 | 1007.9 |
| 20260901014502 | 73 | 246 | 1.0 | 2.0 | 0.00 | 0.00 | 0.00 | 82 | 1008.0 |
| 20260901013822 | 74 | 246 | 0.0 | 0.0 | 0.00 | 0.00 | 0.00 | 82 | 1007.9 |
| 20260901013107 | 74 | 246 | 0.0 | 2.0 | 0.00 | 0.00 | 0.00 | 81 | 1007.8 |
| 20260901012837 | 74 | 246 | 0.0 | 0.0 | 0.00 | 0.00 | 0.00 | 81 | 1007.7 |
| 20260901011823 | 75 | 246 | 0.0 | 1.0 | 0.00 | 0.00 | 0.00 | 80 | 1007.6 |
| 20260901011502 | 75 | 242 | 1.0 | 2.0 | 0.00 | 0.00 | 0.00 | 80 | 1007.6 |
| 20260901010838 | 76 | 255 | 0.0 | 0.0 | 0.00 | 0.00 | 0.00 | 79 | 1007.4 |